Have a Safe July 4th! 

Flight Track Log - Related Links

Times and Time Zones

All times are in EDT time to prevent confusion due to time zone crossing. See the N948CE flight status page for this flight to view local times or setup timezone preferences in your user account.

Time Position Orientation Groundspeed Altitude Reporting Facility
EDT Latitude Longitude Course Direction KTS MPH feet Rate Location/Type
Thu 12:19:40 PM 45.1261 -85.3164 153° Southeast 177 204 10,300  Level Minneapolis Center
Thu 12:20:42 PM 45.0725 -85.2994 167° South 188 216 12,100 1,790 Climbing Minneapolis Center
Thu 12:21:00 PM 44.9483 -85.0137 153° Southeast  Level Estimated
Thu 12:21:44 PM 45.0250 -85.2597 149° Southeast 196 226 14,000  Level Minneapolis Center
Thu 12:22:00 PM 44.8889 -84.9704 153° Southeast  Level Estimated
Thu 12:22:47 PM 44.9775 -85.2256 153° Southeast 194 223 16,000  Level Minneapolis Center
Thu 12:23:00 PM 44.8294 -84.9272 153° Southeast  Level Estimated
Thu 12:23:49 PM 44.9317 -85.1917 152° Southeast 189 217 17,600  Level Minneapolis Center
Thu 12:24:00 PM 44.7699 -84.8841 153° Southeast  Level Estimated
Thu 12:24:51 PM 44.8708 -85.1497 154° Southeast 199 229 19,000  Level Minneapolis Center
Thu 12:25:00 PM 44.7104 -84.8411 153° Southeast  Level Estimated
Thu 12:25:53 PM 44.8056 -85.1006 152° Southeast 258 297 19,000  Level Minneapolis Center
Thu 12:26:55 PM 44.7347 -85.0494 153° Southeast 283 326 19,000  Level Minneapolis Center
Thu 12:27:57 PM 44.6675 -85.0017 153° Southeast 274 315 19,000  Level Minneapolis Center
Thu 12:28:59 PM 44.6006 -84.9528 153° Southeast 272 313 19,000  Level Minneapolis Center
Thu 12:30:01 PM 44.5322 -84.9056 154° Southeast 274 315 19,000  Level Minneapolis Center
Thu 12:31:03 PM 44.4531 -84.8483 153° Southeast 268 308 19,000  Level Minneapolis Center
Thu 12:32:05 PM 44.3867 -84.8008 153° Southeast 268 308 19,000  Level Minneapolis Center
Thu 12:33:07 PM 44.3186 -84.7539 154° Southeast 272 313 19,000  Level Minneapolis Center
Thu 12:34:10 PM 44.2511 -84.7058 153° Southeast 273 314 19,000  Level Minneapolis Center
Thu 12:35:12 PM 44.1853 -84.6594 153° Southeast 269 310 19,000  Level Minneapolis Center
Thu 12:36:14 PM 44.1067 -84.6050 154° Southeast 277 319 19,000  Level Minneapolis Center
Thu 12:37:16 PM 44.0356 -84.5544 153° Southeast 270 311 19,000  Level Minneapolis Center
Thu 12:38:18 PM 43.9761 -84.5139 154° Southeast 269 310 19,000  Level Minneapolis Center
Thu 12:39:20 PM 43.9094 -84.4667 153° Southeast 267 307 19,000  Level Minneapolis Center
Thu 12:40:22 PM 43.8275 -84.4103 154° Southeast 272 313 19,000  Level Minneapolis Center
Thu 12:41:24 PM 43.7600 -84.3622 153° Southeast 273 314 19,000  Level Minneapolis Center
Thu 12:42:26 PM 43.6919 -84.3144 153° Southeast 273 314 19,000  Level Minneapolis Center
Thu 12:43:28 PM 43.6236 -84.2683 154° Southeast 273 314 19,000 -218 Level Minneapolis Center
Thu 12:44:16 PM 43.5614 -84.2303 156° South 272 313 18,600 -944 Descending Cleveland Center
Thu 12:45:16 PM 43.4942 -84.1806 152° Southeast 279 321 17,300 -1,250 Descending Cleveland Center
Thu 12:46:16 PM 43.4308 -84.1367 153° Southeast 273 314 16,100 -1,200 Descending Cleveland Center
Thu 12:47:16 PM 43.3656 -84.0928 154° Southeast 261 300 14,900 -1,150 Descending Cleveland Center
Thu 12:48:16 PM 43.3033 -84.0836 174° South 228 262 13,800 -1,250 Descending Cleveland Center
Thu 12:49:16 PM 43.2439 -84.1144 201° Southwest 219 252 12,400 -1,350 Descending Cleveland Center
Thu 12:50:16 PM 43.1831 -84.0656 150° Southeast 226 260 11,100 -1,350 Descending Cleveland Center
Thu 12:51:16 PM 43.1181 -84.0022 145° Southeast 238 274 9,700 -1,350 Descending Cleveland Center
Thu 12:52:16 PM 43.0614 -83.9478 145° Southeast 257 296 8,400 -1,200 Descending Cleveland Center
Thu 12:53:16 PM 43.0086 -83.8967 145° Southeast 257 296 7,300 -1,200 Descending Cleveland Center
Thu 12:54:16 PM 42.9456 -83.8394 146° Southeast 250 288 6,000 -1,100 Descending Cleveland Center
Thu 12:55:16 PM 42.9011 -83.7944 143° Southeast 244 281 5,100 -1,000 Descending Cleveland Center
Thu 12:56:16 PM 42.8608 -83.7414 136° Southeast 223 257 4,000 -550 Descending Cleveland Center
Thu 12:57:16 PM 42.8358 -83.6639 114° Southeast 197 227 4,000 -192 Level Cleveland Center
Thu 12:58:21 PM 42.8106 -83.5917 115° Southeast 199 229 3,600 -455 Descending Cleveland Center
Thu 12:59:28 PM 42.7794 -83.5083 117° Southeast 227 261 3,000 -422 Descending Cleveland Center
Thu 01:00:29 PM 42.7369 -83.4553 137° Southeast 195 224 2,700 -295 Descending Cleveland Center
Thu 01:01:30 PM 42.7133 -83.4061 123° Southeast 146 168 2,400 -295 Descending Cleveland Center
Thu 01:02:31 PM 42.6847 -83.3767 143° Southeast 139 160 2,100 -295 Descending Cleveland Center
Thu 01:04:00 PM 42.6656 -83.4205 144° Southeast  Level Estimated

Login

Don't have an account? Register now (free) for customized features, flight alerts, and more!